South Bend, Indiana
Current Conditions -  °F | °C
As of 6:04 AM on Thursday 23 Oct 2014 (Local Time) from KSBN Reporting Station
Haze Haze  
Wind Chill: -1°   Ceiling: Unl
Heat Index: -1°   Visibility: 2mi
Dew Point: -2°   Wind: 0mph
Humidity: 92%   Direction: NA
Pressure: 30.26"   Gusts: NA
Location:  41.68°N, 86.25°W
Report Text: KSBN 231004Z 00000KT 2SM R27L/3000VP6000FT BR CLR M01/M02 A3026 RMK AO2 T10111022
Loading
Personal Weather Stations






























Interactive Weather Map
Tropical Storm Tracking
New forecast layout! Learn more

10-Day Weather Forecast

Advertisements
Track Severe Weather on mobile